Time;durP1;ratioP1;P1;durP2;ratioP2;P2;SDS_P1;SDS_P2;PMS_P1;PMS_P2;Temp;Humidity;BMP_temperature;BMP_pressure;BME280_temperature;BME280_humidity;BME280_pressure;Samples;Min_cycle;Max_cycle;Signal;HPM_P1;HPM_P2
2022/04/28 00:01:16;;;;;;;6.47;3.50;;;18.00;99.90;;;;;;5031417;28;20049;-76
2022/04/28 00:03:43;;;;;;;8.63;3.10;;;18.00;99.90;;;;;;5049816;28;20073;-75
2022/04/28 00:06:11;;;;;;;9.43;3.33;;;18.00;99.90;;;;;;5048044;28;20395;-76
2022/04/28 00:08:39;;;;;;;5.18;2.90;;;18.00;99.90;;;;;;5033852;28;20098;-76
2022/04/28 00:11:08;;;;;;;10.02;4.03;;;18.10;99.90;;;;;;5034559;28;20152;-75
2022/04/28 00:13:36;;;;;;;6.32;3.05;;;18.00;99.90;;;;;;5051736;28;20040;-76
2022/04/28 00:16:04;;;;;;;17.10;3.88;;;18.10;99.90;;;;;;5034296;28;20044;-75
2022/04/28 00:18:32;;;;;;;7.10;3.25;;;18.00;99.90;;;;;;5034796;28;20087;-75
2022/04/28 00:20:59;;;;;;;6.30;3.35;;;18.00;99.90;;;;;;5069055;28;20648;-76
2022/04/28 00:23:27;;;;;;;6.22;3.45;;;18.00;99.90;;;;;;5034197;28;20475;-75
2022/04/28 00:25:54;;;;;;;6.32;2.90;;;17.90;99.90;;;;;;5070827;28;20405;-75
2022/04/28 00:28:22;;;;;;;6.55;4.28;;;17.90;99.90;;;;;;5091391;28;20557;-75
2022/04/28 00:30:50;;;;;;;9.57;3.22;;;17.90;99.90;;;;;;5058067;28;20055;-74
2022/04/28 00:33:18;;;;;;;8.50;3.75;;;17.80;99.90;;;;;;5075196;28;20039;-76
2022/04/28 00:35:45;;;;;;;8.30;3.78;;;17.80;99.90;;;;;;5075612;28;20050;-75
2022/04/28 00:38:14;;;;;;;12.00;3.67;;;17.80;99.90;;;;;;5092147;28;20039;-75
2022/04/28 00:40:42;;;;;;;9.07;3.75;;;17.70;99.90;;;;;;5058380;28;20109;-75
2022/04/28 00:43:18;;;;;;;8.73;3.95;;;17.80;99.90;;;;;;5109606;28;20071;-73
2022/04/28 00:45:47;;;;;;;5.40;2.78;;;17.80;99.90;;;;;;5110308;28;20051;-73
2022/04/28 00:51:04;;;;;;;7.00;3.20;;;17.70;99.90;;;;;;5091543;28;20040;-72
2022/04/28 00:53:35;;;;;;;4.85;3.40;;;17.70;99.90;;;;;;5075448;28;20051;-73
2022/04/28 00:56:04;;;;;;;6.45;2.70;;;17.70;99.90;;;;;;5074719;28;20073;-72
2022/04/28 00:58:32;;;;;;;5.70;2.85;;;17.60;99.90;;;;;;5075066;28;20516;-72
2022/04/28 01:00:59;;;;;;;7.75;3.17;;;17.60;99.90;;;;;;5058305;28;20509;-73
2022/04/28 01:03:30;;;;;;;4.45;2.80;;;17.60;99.90;;;;;;5075154;28;20101;-74
2022/04/28 01:05:59;;;;;;;7.32;3.35;;;17.60;99.90;;;;;;5075062;28;20071;-74
2022/04/28 01:08:27;;;;;;;9.50;3.50;;;17.60;99.90;;;;;;5075219;28;20513;-75
2022/04/28 01:10:56;;;;;;;4.68;2.92;;;17.60;99.90;;;;;;5074834;28;20051;-75
2022/04/28 01:13:25;;;;;;;7.65;3.50;;;17.60;99.90;;;;;;5075396;28;20121;-75
2022/04/28 01:16:05;;;;;;;8.38;3.20;;;17.60;99.90;;;;;;5060249;28;20051;-74
2022/04/28 01:18:32;;;;;;;10.90;4.35;;;17.60;99.90;;;;;;5074056;28;20044;-75
2022/04/28 01:21:07;;;;;;;9.73;3.47;;;17.60;99.90;;;;;;5093414;28;20039;-74
2022/04/28 01:23:37;;;;;;;9.18;3.97;;;17.50;99.90;;;;;;5078532;28;20043;-75
2022/04/28 01:26:05;;;;;;;7.03;4.15;;;17.50;99.90;;;;;;5062056;28;20051;-75
2022/04/28 01:28:34;;;;;;;7.03;3.05;;;17.50;99.90;;;;;;5078305;28;20050;-75
2022/04/28 01:31:05;;;;;;;4.80;3.58;;;17.50;99.90;;;;;;5077717;28;20051;-74
2022/04/28 01:33:47;;;;;;;9.80;4.32;;;17.50;99.90;;;;;;5063825;28;20056;-75
2022/04/28 01:36:18;;;;;;;11.13;4.57;;;17.50;99.90;;;;;;5062052;28;20088;-75
2022/04/28 01:38:47;;;;;;;8.05;3.72;;;17.50;99.90;;;;;;5094646;28;20047;-75
2022/04/28 01:41:15;;;;;;;14.50;5.00;;;17.50;99.90;;;;;;5094673;28;20414;-75
2022/04/28 01:43:44;;;;;;;15.50;4.30;;;17.50;99.90;;;;;;5073013;28;20047;-77
2022/04/28 01:46:14;;;;;;;8.32;3.97;;;17.50;99.90;;;;;;5057729;28;20406;-75
2022/04/28 01:49:17;;;;;;;7.97;4.70;;;17.40;99.90;;;;;;5012064;28;20132;-75
2022/04/28 01:55:24;;;;;;;9.43;4.32;;;17.40;99.90;;;;;;4974786;28;20088;-75
2022/04/28 01:57:54;;;;;;;17.25;4.45;;;17.40;99.90;;;;;;4974398;28;20141;-74
2022/04/28 02:00:45;;;;;;;7.82;4.22;;;17.40;99.90;;;;;;5042771;28;20064;-75
2022/04/28 02:03:14;;;;;;;7.65;3.63;;;17.40;99.90;;;;;;5057409;28;20062;-75
2022/04/28 02:05:43;;;;;;;7.53;3.33;;;17.40;99.90;;;;;;5074384;28;20047;-75
2022/04/28 02:08:10;;;;;;;12.45;5.10;;;17.50;99.90;;;;;;5057212;28;20078;-75
2022/04/28 02:10:38;;;;;;;6.60;3.85;;;17.40;99.90;;;;;;5073916;28;20417;-75
2022/04/28 02:13:18;;;;;;;7.75;3.85;;;17.40;99.90;;;;;;5073858;28;20048;-76
2022/04/28 02:16:15;;;;;;;;;;;17.40;99.90;;;;;;5058184;28;20143;-75
2022/04/28 02:18:45;;;;;;;9.38;3.63;;;17.40;99.90;;;;;;5091948;28;19977;-76
2022/04/28 02:21:12;;;;;;;11.38;5.18;;;17.40;99.90;;;;;;5073484;28;20040;-75
2022/04/28 02:23:40;;;;;;;10.57;4.32;;;17.40;99.90;;;;;;5057017;28;20496;-75
2022/04/28 02:26:07;;;;;;;6.88;3.70;;;17.40;99.90;;;;;;5073868;28;20044;-75
2022/04/28 02:28:35;;;;;;;10.98;3.85;;;17.40;99.90;;;;;;5057915;28;20577;-75
2022/04/28 02:31:04;;;;;;;12.15;4.40;;;17.30;99.90;;;;;;5057706;28;20055;-74
2022/04/28 02:33:32;;;;;;;8.73;4.97;;;17.30;99.90;;;;;;5056282;28;20048;-75
2022/04/28 02:36:24;;;;;;;8.73;3.95;;;17.30;99.90;;;;;;5083328;28;20048;-75
2022/04/28 02:38:52;;;;;;;10.57;3.92;;;17.30;99.90;;;;;;5057193;28;20093;-75
2022/04/28 02:41:21;;;;;;;9.00;3.60;;;17.30;99.90;;;;;;5074335;28;20056;-75
2022/04/28 02:43:52;;;;;;;5.97;3.72;;;17.30;99.90;;;;;;5057291;28;20048;-75
2022/04/28 02:46:21;;;;;;;11.05;3.72;;;17.20;99.90;;;;;;5056726;28;20454;-75
2022/04/28 02:49:09;;;;;;;8.25;4.07;;;17.20;99.90;;;;;;5059185;28;20043;-74
2022/04/28 02:51:39;;;;;;;8.35;3.72;;;17.20;99.90;;;;;;5057011;28;20452;-75
2022/04/28 02:54:09;;;;;;;6.38;3.47;;;17.10;99.90;;;;;;5056766;28;20052;-74
2022/04/28 02:56:44;;;;;;;7.65;3.50;;;17.10;99.90;;;;;;5040827;28;20079;-75
2022/04/28 02:59:11;;;;;;;6.35;4.07;;;17.10;99.90;;;;;;5073389;28;20055;-75
2022/04/28 03:01:40;;;;;;;13.80;3.70;;;17.10;99.90;;;;;;5073490;28;20051;-74
2022/04/28 03:04:07;;;;;;;7.78;3.28;;;17.10;99.90;;;;;;5072984;28;20040;-75
2022/04/28 03:12:09;;;;;;;6.93;3.63;;;17.10;99.90;;;;;;5056961;28;20125;-75
2022/04/28 03:14:42;;;;;;;6.35;3.42;;;17.10;99.90;;;;;;5057105;28;20122;-75
2022/04/28 03:17:10;;;;;;;7.32;3.25;;;17.00;99.90;;;;;;5056101;28;20043;-75
2022/04/28 03:19:37;;;;;;;18.10;4.80;;;16.90;99.90;;;;;;5056562;28;20048;-75
2022/04/28 03:22:05;;;;;;;8.13;3.22;;;17.00;99.90;;;;;;5039911;28;20517;-75
2022/04/28 03:24:33;;;;;;;11.32;4.20;;;16.90;99.90;;;;;;5056351;28;20040;-74
2022/04/28 03:27:00;;;;;;;7.82;3.38;;;16.90;99.90;;;;;;5056151;28;20040;-75
2022/04/28 03:29:28;;;;;;;7.47;3.72;;;16.90;99.90;;;;;;5073306;28;20051;-74
2022/04/28 03:31:56;;;;;;;6.78;3.42;;;16.80;99.90;;;;;;5039952;28;20040;-74
2022/04/28 03:34:34;;;;;;;16.80;4.53;;;16.80;99.90;;;;;;5058009;28;20051;-75
2022/04/28 03:37:03;;;;;;;8.68;4.18;;;16.80;99.90;;;;;;5055802;28;20146;-75
2022/04/28 03:39:35;;;;;;;5.50;2.85;;;16.80;99.90;;;;;;5056086;28;20444;-75
2022/04/28 03:42:04;;;;;;;8.30;3.75;;;16.80;99.90;;;;;;5055961;28;20062;-75
2022/04/28 03:44:32;;;;;;;6.38;3.58;;;16.80;99.90;;;;;;5055017;28;20048;-75
2022/04/28 03:47:01;;;;;;;9.73;4.13;;;16.80;99.90;;;;;;5055896;28;20051;-75
2022/04/28 03:49:28;;;;;;;9.27;3.63;;;16.80;99.90;;;;;;5038906;28;20051;-75
2022/04/28 03:51:56;;;;;;;9.57;4.38;;;16.70;99.90;;;;;;5039201;28;20059;-75
2022/04/28 03:54:24;;;;;;;6.55;4.50;;;16.70;99.90;;;;;;5072741;28;20055;-75
2022/04/28 03:56:51;;;;;;;10.25;3.85;;;16.70;99.90;;;;;;5039166;28;20056;-75
2022/04/28 03:59:20;;;;;;;5.80;4.20;;;16.70;99.90;;;;;;5056404;28;20040;-75
2022/04/28 04:02:13;;;;;;;6.40;3.58;;;16.70;99.90;;;;;;5071677;28;20685;-75
2022/04/28 04:04:41;;;;;;;8.70;3.47;;;16.70;99.90;;;;;;5055257;28;20134;-75
2022/04/28 04:07:09;;;;;;;5.47;3.47;;;16.70;99.90;;;;;;5055400;28;20486;-75
2022/04/28 04:09:37;;;;;;;12.35;4.45;;;16.70;99.90;;;;;;5055376;28;20063;-75
2022/04/28 04:12:14;;;;;;;5.20;3.03;;;16.70;99.90;;;;;;5055542;28;20078;-75
2022/04/28 04:15:08;;;;;;;8.25;3.92;;;16.70;99.90;;;;;;5028397;28;20055;-75
2022/04/28 04:18:05;;;;;;;;;;;16.70;99.90;;;;;;5050766;28;20136;-75
2022/04/28 04:20:41;;;;;;;10.60;3.80;;;16.70;99.90;;;;;;5055399;28;19924;-75
2022/04/28 04:23:09;;;;;;;9.57;3.50;;;16.70;99.90;;;;;;5054909;28;20138;-75
2022/04/28 04:25:37;;;;;;;8.80;3.60;;;16.80;99.90;;;;;;5038981;28;20273;-75
2022/04/28 04:28:10;;;;;;;11.23;5.10;;;16.80;99.90;;;;;;5039931;28;20052;-74
2022/04/28 04:34:04;;;;;;;9.15;4.07;;;17.00;99.90;;;;;;5066457;28;20044;-75
2022/04/28 04:36:32;;;;;;;8.00;3.70;;;17.10;99.90;;;;;;5077530;28;20032;-76
2022/04/28 04:39:00;;;;;;;6.25;3.10;;;17.20;99.90;;;;;;5053346;28;20044;-76
2022/04/28 04:41:34;;;;;;;7.13;4.00;;;17.30;99.90;;;;;;4893798;28;20679;-70
2022/04/28 04:44:04;;;;;;;7.75;3.72;;;17.40;99.90;;;;;;5001214;28;20121;-74
2022/04/28 04:46:32;;;;;;;9.95;4.13;;;17.50;99.90;;;;;;5056011;28;20044;-73
2022/04/28 04:49:26;;;;;;;9.73;3.83;;;17.60;99.90;;;;;;5076589;28;20056;-73
2022/04/28 04:52:14;;;;;;;12.48;3.70;;;17.80;99.90;;;;;;5043709;28;20043;-71
2022/04/28 04:55:03;;;;;;;8.20;3.28;;;18.00;99.90;;;;;;5050266;28;20126;-73
2022/04/28 04:57:39;;;;;;;7.78;3.28;;;18.20;99.90;;;;;;5050460;28;20071;-73
2022/04/28 05:00:08;;;;;;;10.57;4.07;;;18.30;99.90;;;;;;5075192;28;20060;-73
2022/04/28 05:02:55;;;;;;;7.68;3.35;;;18.40;99.90;;;;;;5054762;28;20572;-73
2022/04/28 05:05:58;;;;;;;10.15;3.13;;;18.50;99.90;;;;;;4956240;28;20074;-73
2022/04/28 05:08:49;;;;;;;10.02;3.25;;;18.50;99.90;;;;;;5047360;28;20513;-73
2022/04/28 05:11:17;;;;;;;5.72;2.50;;;18.50;99.90;;;;;;5038633;28;20048;-73
2022/04/28 05:14:00;;;;;;;9.15;4.00;;;18.60;99.90;;;;;;5037996;28;20094;-73
2022/04/28 05:16:28;;;;;;;6.40;3.35;;;18.60;99.90;;;;;;5055517;28;20129;-73
2022/04/28 05:19:22;;;;;;;10.02;3.58;;;18.60;99.90;;;;;;5010888;28;20510;-73
2022/04/28 05:21:49;;;;;;;10.90;3.40;;;18.70;99.90;;;;;;5072190;28;20044;-73
2022/04/28 05:24:36;;;;;;;6.67;3.27;;;18.70;99.90;;;;;;5040358;28;20140;-74
2022/04/28 05:27:14;;;;;;;7.28;3.58;;;18.70;99.90;;;;;;5053402;28;20055;-74
2022/04/28 05:30:03;;;;;;;10.65;4.25;;;18.80;99.90;;;;;;5054814;28;20071;-73
2022/04/28 05:32:34;;;;;;;15.07;3.70;;;18.90;99.90;;;;;;5055673;28;20051;-73
2022/04/28 05:35:07;;;;;;;7.55;3.95;;;19.10;99.80;;;;;;5055257;28;20057;-73
2022/04/28 05:37:36;;;;;;;4.93;2.88;;;19.20;99.70;;;;;;5038715;28;20406;-73
2022/04/28 05:40:08;;;;;;;6.45;3.53;;;19.30;99.40;;;;;;5073112;28;20037;-73
2022/04/28 05:45:42;;;;;;;;;;;19.40;99.20;;;;;;5055420;28;20044;-73
2022/04/28 05:48:17;;;;;;;9.90;3.17;;;19.40;99.20;;;;;;5037967;28;19924;-73
2022/04/28 05:50:52;;;;;;;8.07;4.47;;;19.40;99.20;;;;;;5037919;28;20106;-73
2022/04/28 05:53:21;;;;;;;5.20;2.88;;;19.50;99.00;;;;;;5038301;28;20051;-73
2022/04/28 05:55:57;;;;;;;7.75;3.38;;;19.60;98.90;;;;;;5039265;28;20052;-73
2022/04/28 05:58:36;;;;;;;8.18;3.17;;;19.70;98.70;;;;;;5037493;28;20052;-73
2022/04/28 06:01:23;;;;;;;8.23;3.30;;;19.70;98.50;;;;;;5040048;28;20052;-73
2022/04/28 06:03:50;;;;;;;6.75;3.00;;;19.80;98.60;;;;;;5054084;28;20048;-74
2022/04/28 06:06:18;;;;;;;5.32;3.03;;;20.00;98.50;;;;;;5053835;28;20052;-73
2022/04/28 06:08:50;;;;;;;6.32;2.85;;;20.00;98.00;;;;;;5036500;28;20052;-75
2022/04/28 06:11:19;;;;;;;14.38;3.58;;;20.10;97.90;;;;;;5037808;28;20043;-74
2022/04/28 06:13:47;;;;;;;10.95;3.47;;;20.30;97.50;;;;;;5053986;28;20048;-75
2022/04/28 06:16:38;;;;;;;14.25;2.83;;;20.40;97.50;;;;;;5040862;28;20114;-74
2022/04/28 06:19:32;;;;;;;9.88;2.60;;;20.70;97.30;;;;;;5039290;28;20525;-75
2022/04/28 06:22:06;;;;;;;11.50;4.13;;;20.80;96.60;;;;;;5071990;28;20051;-74
2022/04/28 06:24:39;;;;;;;8.75;3.22;;;20.80;96.20;;;;;;5038328;28;20087;-74
2022/04/28 06:27:08;;;;;;;8.00;2.75;;;20.80;95.70;;;;;;5053254;28;20045;-75
2022/04/28 06:29:38;;;;;;;7.22;2.55;;;20.80;95.90;;;;;;5021951;28;20126;-73
2022/04/28 06:32:10;;;;;;;9.27;3.08;;;20.90;95.70;;;;;;5037422;28;20051;-73
2022/04/28 06:35:16;;;;;;;7.00;2.78;;;21.10;95.50;;;;;;4973601;28;20063;-74
2022/04/28 06:37:45;;;;;;;7.65;3.17;;;21.00;95.20;;;;;;4973629;28;20401;-74
2022/04/28 06:40:13;;;;;;;9.85;2.55;;;21.00;94.80;;;;;;5000337;28;20049;-74
2022/04/28 06:42:43;;;;;;;9.82;2.35;;;21.10;94.40;;;;;;5054105;28;20052;-74
2022/04/28 06:45:24;;;;;;;8.77;2.38;;;21.20;94.10;;;;;;5055432;28;20051;-73
2022/04/28 06:47:52;;;;;;;9.77;2.55;;;21.30;94.00;;;;;;5053350;28;20135;-74
2022/04/28 06:50:50;;;;;;;7.60;2.17;;;21.40;94.00;;;;;;5045777;28;20040;-74
2022/04/28 06:53:38;;;;;;;10.38;2.78;;;21.50;93.30;;;;;;5039926;28;20130;-74
2022/04/28 06:56:08;;;;;;;7.18;2.83;;;21.40;93.40;;;;;;5053901;28;20376;-74
2022/04/28 06:58:54;;;;;;;8.55;2.72;;;21.40;92.90;;;;;;5022891;28;20078;-74
2022/04/28 07:01:29;;;;;;;5.35;3.28;;;21.50;92.80;;;;;;5038358;28;20056;-74
2022/04/28 07:04:02;;;;;;;5.65;1.75;;;21.60;93.00;;;;;;5020675;28;20052;-73
2022/04/28 07:06:31;;;;;;;10.07;2.47;;;21.80;92.40;;;;;;5053896;28;20578;-74
2022/04/28 07:08:58;;;;;;;4.30;2.17;;;21.90;91.70;;;;;;5035444;28;20852;-73
2022/04/28 07:11:27;;;;;;;9.52;2.40;;;21.80;91.50;;;;;;5037256;28;20059;-74
2022/04/28 07:14:07;;;;;;;4.85;1.92;;;21.70;91.20;;;;;;5036414;28;20052;-73
2022/04/28 07:16:55;;;;;;;4.88;1.92;;;21.50;90.80;;;;;;5026066;28;20056;-74
2022/04/28 07:19:25;;;;;;;8.48;2.33;;;21.60;90.30;;;;;;5019487;28;20135;-73
2022/04/28 07:21:54;;;;;;;9.65;3.00;;;21.70;90.70;;;;;;5036716;28;20064;-74
2022/04/28 07:24:22;;;;;;;5.80;2.85;;;21.90;90.60;;;;;;5019344;28;20055;-74
2022/04/28 07:26:49;;;;;;;5.78;2.30;;;21.90;90.00;;;;;;5052878;28;20044;-73
2022/04/28 07:29:18;;;;;;;13.85;2.67;;;22.00;89.60;;;;;;5019631;28;20106;-74
2022/04/28 07:32:07;;;;;;;4.63;2.17;;;22.10;89.70;;;;;;5022734;28;20056;-74
2022/04/28 07:34:53;;;;;;;7.68;2.35;;;22.20;90.00;;;;;;5038779;28;20082;-75
2022/04/28 07:37:56;;;;;;;5.82;2.38;;;22.10;89.80;;;;;;5008096;28;20064;-74
2022/04/28 07:41:00;;;;;;;11.35;2.42;;;22.20;90.00;;;;;;5008299;28;20106;-73
2022/04/28 07:43:28;;;;;;;9.23;2.40;;;22.40;89.80;;;;;;5036602;28;20264;-73
2022/04/28 07:45:58;;;;;;;6.13;2.38;;;22.50;90.00;;;;;;5035590;28;20064;-74
2022/04/28 07:48:28;;;;;;;5.57;2.30;;;22.50;89.40;;;;;;5035505;28;20053;-74
2022/04/28 07:50:57;;;;;;;4.93;2.72;;;22.50;88.60;;;;;;5070451;28;20053;-73
2022/04/28 07:53:28;;;;;;;4.15;1.85;;;22.50;88.10;;;;;;5053021;28;20036;-72
2022/04/28 07:56:12;;;;;;;11.10;2.92;;;22.60;89.00;;;;;;5052799;28;20044;-73
2022/04/28 07:58:45;;;;;;;4.30;1.77;;;22.50;88.30;;;;;;5036007;28;20083;-73
2022/04/28 08:01:32;;;;;;;9.05;2.33;;;22.50;87.80;;;;;;5035703;28;20044;-74
2022/04/28 08:04:00;;;;;;;6.18;1.95;;;22.60;87.20;;;;;;5036219;28;20409;-74
2022/04/28 08:06:29;;;;;;;4.85;2.10;;;22.60;87.30;;;;;;5019284;28;20048;-73
2022/04/28 08:08:59;;;;;;;10.05;3.20;;;22.60;88.00;;;;;;5051234;28;20053;-73
2022/04/28 08:11:27;;;;;;;4.30;1.73;;;22.60;88.00;;;;;;5051735;28;20057;-73
2022/04/28 08:13:55;;;;;;;8.50;2.88;;;22.50;87.40;;;;;;5019208;28;20103;-74
2022/04/28 08:16:32;;;;;;;5.32;2.30;;;22.50;87.50;;;;;;5069873;28;20452;-73
2022/04/28 08:19:01;;;;;;;4.70;2.75;;;22.50;88.40;;;;;;5051880;28;20512;-73
2022/04/28 08:21:43;;;;;;;9.20;2.45;;;22.60;88.20;;;;;;5037753;28;20040;-75
2022/04/28 08:24:12;;;;;;;6.70;2.30;;;22.50;87.40;;;;;;5052415;28;20116;-73
2022/04/28 08:26:42;;;;;;;8.07;2.60;;;22.70;87.30;;;;;;5036023;28;20402;-74
2022/04/28 08:29:11;;;;;;;5.63;2.10;;;22.70;86.60;;;;;;5051649;28;20053;-75
2022/04/28 08:31:44;;;;;;;16.58;3.00;;;22.90;87.20;;;;;;5041096;28;20467;-73
2022/04/28 08:34:18;;;;;;;6.38;2.63;;;22.70;87.50;;;;;;5058349;28;20036;-73
2022/04/28 08:36:47;;;;;;;9.80;2.75;;;22.70;87.30;;;;;;5058908;28;20514;-73
2022/04/28 08:39:18;;;;;;;10.73;2.42;;;22.80;87.60;;;;;;5042251;28;20106;-73
2022/04/28 08:41:47;;;;;;;4.22;1.67;;;23.00;87.40;;;;;;5042294;28;20040;-73
2022/04/28 08:44:23;;;;;;;8.13;2.63;;;23.20;86.70;;;;;;5058810;28;20433;-74
2022/04/28 08:47:14;;;;;;;9.48;2.60;;;23.00;85.70;;;;;;5056970;28;20049;-74
2022/04/28 08:49:50;;;;;;;4.68;2.20;;;23.00;86.10;;;;;;5026764;28;20487;-75
2022/04/28 08:52:32;;;;;;;11.10;2.92;;;22.80;86.40;;;;;;5041964;28;20574;-72
2022/04/28 08:55:10;;;;;;;7.18;1.85;;;22.70;87.70;;;;;;5058739;28;20462;-72
2022/04/28 08:57:38;;;;;;;6.50;2.20;;;22.90;87.00;;;;;;5058776;28;20045;-72
2022/04/28 09:00:07;;;;;;;4.00;1.85;;;22.90;86.90;;;;;;5058462;28;20036;-73
2022/04/28 09:02:58;;;;;;;5.18;1.90;;;23.00;85.40;;;;;;5045109;28;20052;-74
2022/04/28 09:05:44;;;;;;;;;;;22.90;84.90;;;;;;5042297;28;20052;-74
2022/04/28 09:08:32;;;;;;;4.85;2.10;;;22.90;85.00;;;;;;5044152;28;19920;-73
2022/04/28 09:11:31;;;;;;;6.15;2.63;;;23.00;84.20;;;;;;5037574;28;20055;-73
2022/04/28 09:14:20;;;;;;;4.85;2.50;;;22.90;85.10;;;;;;5058931;28;20206;-73
2022/04/28 09:16:51;;;;;;;6.68;1.90;;;22.90;84.30;;;;;;5058423;28;20490;-74
2022/04/28 09:19:28;;;;;;;8.05;2.47;;;22.90;83.80;;;;;;5058622;28;20487;-74
2022/04/28 09:22:04;;;;;;;4.97;2.38;;;23.00;83.70;;;;;;5058734;28;20053;-74
2022/04/28 09:24:33;;;;;;;5.72;1.70;;;22.90;82.70;;;;;;5041528;28;20056;-74
2022/04/28 09:27:03;;;;;;;4.75;2.00;;;22.80;82.30;;;;;;5057755;28;20507;-74
2022/04/28 09:29:36;;;;;;;5.47;2.63;;;22.90;82.80;;;;;;5041486;28;20052;-73
2022/04/28 09:32:12;;;;;;;5.93;1.83;;;23.00;82.80;;;;;;5025421;28;20079;-74
2022/04/28 09:35:08;;;;;;;6.20;2.03;;;23.00;83.00;;;;;;5057475;28;20376;-74
2022/04/28 09:37:58;;;;;;;5.47;1.90;;;23.20;83.70;;;;;;5057745;28;20608;-75
2022/04/28 09:43:21;;;;;;;3.90;1.55;;;23.30;82.90;;;;;;5038053;28;20194;-73
2022/04/28 09:45:50;;;;;;;5.88;2.05;;;23.40;81.20;;;;;;5054782;28;20041;-73
2022/04/28 09:48:19;;;;;;;11.63;2.00;;;23.20;81.10;;;;;;5054916;28;20048;-74
2022/04/28 09:50:51;;;;;;;6.82;2.22;;;23.10;79.80;;;;;;5038681;28;20048;-73
2022/04/28 09:53:38;;;;;;;6.30;1.63;;;23.10;78.70;;;;;;5040995;28;20049;-75
2022/04/28 09:56:27;;;;;;;7.40;2.78;;;23.20;78.30;;;;;;5040192;28;20056;-73
2022/04/28 09:59:05;;;;;;;5.35;1.90;;;23.20;79.20;;;;;;5054813;28;20071;-74
2022/04/28 10:01:35;;;;;;;2.88;1.70;;;23.20;79.00;;;;;;5038244;28;20067;-73
2022/04/28 10:04:03;;;;;;;5.25;1.83;;;23.20;78.70;;;;;;5054490;28;20505;-73
2022/04/28 10:06:49;;;;;;;4.88;1.80;;;23.10;79.00;;;;;;5057213;28;20041;-74
2022/04/28 10:09:23;;;;;;;5.68;2.08;;;23.20;79.50;;;;;;5038373;28;20414;-73
2022/04/28 10:11:56;;;;;;;5.07;1.95;;;23.20;79.70;;;;;;5038079;28;20135;-73
2022/04/28 10:14:29;;;;;;;5.28;2.22;;;23.10;78.40;;;;;;5054476;28;20147;-73
2022/04/28 10:17:01;;;;;;;4.20;1.80;;;23.00;79.00;;;;;;5037444;28;20060;-73
2022/04/28 10:19:35;;;;;;;4.05;2.10;;;22.80;78.50;;;;;;5053933;28;20040;-73
2022/04/28 10:22:17;;;;;;;10.70;1.83;;;22.90;79.50;;;;;;5037335;28;20045;-73
2022/04/28 10:33:46;;;;;;;3.67;1.80;;;23.00;77.70;;;;;;5053766;28;20152;-73
2022/04/28 10:36:20;;;;;;;4.90;1.80;;;23.00;79.30;;;;;;5054187;28;20123;-73
2022/04/28 10:39:05;;;;;;;3.60;1.70;;;23.00;80.40;;;;;;5037510;28;20143;-73
2022/04/28 10:41:34;;;;;;;4.43;1.83;;;22.90;79.90;;;;;;5071557;28;20048;-73
2022/04/28 10:44:16;;;;;;;6.53;2.10;;;22.90;81.70;;;;;;5053646;28;20395;-72
2022/04/28 10:46:59;;;;;;;6.40;1.90;;;22.80;81.40;;;;;;5053835;28;20117;-73
2022/04/28 10:49:36;;;;;;;4.43;1.83;;;22.80;81.70;;;;;;5053678;28;20064;-73
2022/04/28 10:52:04;;;;;;;3.95;2.05;;;22.90;80.90;;;;;;5037117;28;20163;-73
2022/04/28 10:54:44;;;;;;;10.70;1.98;;;22.80;81.80;;;;;;5036587;28;20045;-73
2022/04/28 10:57:15;;;;;;;4.75;1.60;;;22.80;82.00;;;;;;5052457;28;20056;-73
2022/04/28 10:59:49;;;;;;;5.10;1.67;;;22.80;80.60;;;;;;5053563;28;20076;-73
2022/04/28 11:02:19;;;;;;;3.50;1.48;;;22.90;80.70;;;;;;5036818;28;20053;-73
2022/04/28 11:05:01;;;;;;;4.68;2.13;;;22.90;80.70;;;;;;5020549;28;20098;-72
2022/04/28 11:07:31;;;;;;;13.93;2.15;;;22.90;79.50;;;;;;5053033;28;20232;-73
2022/04/28 11:10:03;;;;;;;3.47;1.45;;;22.80;80.00;;;;;;5033090;28;20061;-73
2022/04/28 11:12:37;;;;;;;6.03;2.25;;;22.90;80.50;;;;;;5049708;28;20052;-73
2022/04/28 11:15:09;;;;;;;6.53;2.05;;;22.80;80.50;;;;;;5049324;28;20044;-73
2022/04/28 11:17:43;;;;;;;4.43;1.90;;;22.80;78.90;;;;;;5033148;28;20060;-73
2022/04/28 11:20:14;;;;;;;15.48;2.38;;;22.90;78.10;;;;;;5032900;28;20144;-73
2022/04/28 11:22:51;;;;;;;5.80;1.60;;;22.80;78.30;;;;;;5018260;28;20140;-73
2022/04/28 11:25:21;;;;;;;3.97;1.88;;;22.80;78.70;;;;;;5032760;28;20148;-74
2022/04/28 11:27:51;;;;;;;4.70;1.75;;;22.80;81.00;;;;;;5033278;28;20442;-73
2022/04/28 11:30:21;;;;;;;6.68;2.13;;;22.90;81.30;;;;;;5032509;28;20094;-73
2022/04/28 11:32:57;;;;;;;7.82;2.28;;;23.00;79.50;;;;;;5049538;28;20060;-73
2022/04/28 11:35:36;;;;;;;7.13;2.75;;;22.90;77.60;;;;;;5049477;28;20075;-73
2022/04/28 11:38:04;;;;;;;7.43;2.30;;;22.70;78.60;;;;;;5032360;28;20053;-74
2022/04/28 11:40:34;;;;;;;4.53;1.98;;;22.80;79.00;;;;;;5049455;28;20052;-74
2022/04/28 11:43:03;;;;;;;5.03;1.60;;;22.70;80.40;;;;;;5032255;28;20045;-72
2022/04/28 11:45:32;;;;;;;3.67;1.52;;;22.50;79.00;;;;;;5032360;28;20095;-73
2022/04/28 11:48:01;;;;;;;2.75;1.55;;;22.50;78.90;;;;;;5048926;28;20514;-74
2022/04/28 11:50:31;;;;;;;10.50;2.08;;;22.40;75.70;;;;;;5048985;28;20491;-74
2022/04/28 11:53:12;;;;;;;4.55;1.98;;;22.30;75.50;;;;;;5048483;28;20130;-74
2022/04/28 11:55:40;;;;;;;4.70;1.85;;;22.40;75.60;;;;;;5048771;28;20156;-75
2022/04/28 11:58:10;;;;;;;4.90;2.28;;;22.30;77.40;;;;;;5033450;28;20445;-74
2022/04/28 12:00:40;;;;;;;2.72;1.42;;;22.30;77.30;;;;;;5071983;28;20083;-74
2022/04/28 12:03:09;;;;;;;4.18;1.88;;;22.30;77.60;;;;;;5046354;28;20063;-72
2022/04/28 12:05:37;;;;;;;3.15;1.55;;;22.20;77.60;;;;;;5054808;28;20048;-74
2022/04/28 12:08:05;;;;;;;3.80;1.55;;;22.20;78.50;;;;;;5046523;28;20055;-74
2022/04/28 12:16:18;;;;;;;3.28;1.63;;;22.20;77.80;;;;;;5074486;28;20061;-73
2022/04/28 12:21:34;;;;;;;5.90;2.03;;;22.10;74.20;;;;;;5048582;28;20048;-73
2022/04/28 12:24:11;;;;;;;7.57;1.60;;;22.10;74.80;;;;;;5030548;28;20045;-74
2022/04/28 12:26:44;;;;;;;7.88;1.52;;;22.10;74.70;;;;;;5046534;28;20597;-74
2022/04/28 12:29:14;;;;;;;5.32;1.80;;;22.10;72.90;;;;;;5014330;28;20560;-74
2022/04/28 12:31:43;;;;;;;3.90;1.63;;;21.90;73.80;;;;;;5057323;28;20061;-75
2022/04/28 12:34:22;;;;;;;5.25;2.00;;;21.80;73.20;;;;;;5029116;28;20045;-74
2022/04/28 12:36:58;;;;;;;5.18;1.83;;;21.80;73.90;;;;;;5049487;28;20076;-71
2022/04/28 12:39:31;;;;;;;4.18;1.60;;;21.80;72.70;;;;;;5049740;28;20056;-72
2022/04/28 12:42:09;;;;;;;5.40;2.10;;;21.80;72.70;;;;;;5062646;28;20103;-73
2022/04/28 12:44:46;;;;;;;4.88;2.13;;;21.80;73.00;;;;;;5032616;28;20083;-72
2022/04/28 12:47:14;;;;;;;7.32;1.92;;;21.80;73.50;;;;;;5031284;28;20083;-72
2022/04/28 12:49:48;;;;;;;2.72;1.50;;;21.80;73.50;;;;;;5037543;28;20053;-72
2022/04/28 12:52:26;;;;;;;4.80;2.30;;;21.80;71.80;;;;;;5031795;28;20049;-72
2022/04/28 12:55:02;;;;;;;2.78;1.60;;;21.80;72.90;;;;;;5049647;28;20408;-73
2022/04/28 12:57:30;;;;;;;3.88;1.52;;;21.80;74.30;;;;;;5033225;28;20056;-72
2022/04/28 13:00:09;;;;;;;5.10;2.00;;;21.80;74.50;;;;;;5048834;28;20045;-73
2022/04/28 13:02:38;;;;;;;5.00;2.10;;;21.90;75.20;;;;;;5034141;28;20076;-72
2022/04/28 13:05:12;;;;;;;7.68;2.10;;;21.90;75.30;;;;;;5048121;28;20052;-73
2022/04/28 13:07:58;;;;;;;2.90;1.48;;;21.90;76.70;;;;;;5021754;28;20179;-72
2022/04/28 13:10:26;;;;;;;5.05;2.05;;;21.90;75.10;;;;;;5042788;28;20095;-73
2022/04/28 13:12:54;;;;;;;3.83;2.03;;;22.00;73.50;;;;;;5064016;28;20119;-75
2022/04/28 13:15:22;;;;;;;3.65;1.60;;;21.90;73.30;;;;;;5046135;28;20423;-72
2022/04/28 13:17:50;;;;;;;4.13;1.98;;;21.90;73.10;;;;;;5055926;28;20036;-73
2022/04/28 13:20:18;;;;;;;5.47;1.85;;;21.90;72.90;;;;;;5062770;28;20507;-73
2022/04/28 13:22:46;;;;;;;4.50;1.42;;;21.80;72.30;;;;;;5052794;28;20048;-73
2022/04/28 13:25:16;;;;;;;4.38;2.08;;;21.70;71.70;;;;;;5060139;28;20048;-74
2022/04/28 13:27:44;;;;;;;2.50;1.30;;;21.70;72.20;;;;;;5054104;28;20048;-74
2022/04/28 13:30:13;;;;;;;5.68;1.90;;;21.70;72.10;;;;;;5055330;28;20147;-73
2022/04/28 13:32:41;;;;;;;6.28;1.70;;;21.60;72.80;;;;;;5068049;28;20046;-73
2022/04/28 13:35:09;;;;;;;4.22;1.85;;;21.60;73.20;;;;;;5038534;28;20056;-72
2022/04/28 13:37:37;;;;;;;4.45;1.70;;;21.50;75.30;;;;;;5035881;28;20049;-73
2022/04/28 13:40:05;;;;;;;3.92;1.58;;;21.50;73.50;;;;;;5051480;28;20487;-72
2022/04/28 13:42:33;;;;;;;4.50;1.92;;;21.50;74.40;;;;;;5061496;28;20398;-74
2022/04/28 13:45:01;;;;;;;4.85;1.40;;;21.40;75.20;;;;;;5066813;28;20053;-74
2022/04/28 13:47:29;;;;;;;3.13;2.28;;;21.40;76.00;;;;;;5053901;28;20669;-74
2022/04/28 13:49:57;;;;;;;3.83;1.83;;;21.40;77.10;;;;;;5055164;28;20052;-74
2022/04/28 13:52:25;;;;;;;3.95;2.03;;;21.50;76.00;;;;;;5055160;28;20149;-74
2022/04/28 13:54:53;;;;;;;3.05;1.80;;;21.50;75.70;;;;;;5071814;28;20071;-74
2022/04/28 13:57:21;;;;;;;5.15;1.80;;;21.40;75.30;;;;;;5055155;28;20091;-74